Time;durP1;ratioP1;P1;durP2;ratioP2;P2;SDS_P1;SDS_P2;PMS_P1;PMS_P2;Temp;Humidity;BMP_temperature;BMP_pressure;BME280_temperature;BME280_humidity;BME280_pressure;Samples;Min_cycle;Max_cycle;Signal;HPM_P1;HPM_P2
2024/01/02 00:00:19;;;;;;;27.23;7.85;;;;;;;;;;4993271;28;25075;-74
2024/01/02 00:02:45;;;;;;;24.23;6.22;;;;;;;;;;4994175;28;25052;-72
2024/01/02 00:05:11;;;;;;;22.95;7.43;;;;;;;;;;4995639;28;25054;-73
2024/01/02 00:07:37;;;;;;;18.17;5.53;;;;;;;;;;5019675;28;25093;-72
2024/01/02 00:10:04;;;;;;;26.48;5.78;;;;;;;;;;4990955;28;25060;-73
2024/01/02 00:12:30;;;;;;;20.27;5.20;;;;;;;;;;4991841;28;25151;-74
2024/01/02 00:14:56;;;;;;;19.90;5.45;;;;;;;;;;4996775;28;25060;-72
2024/01/02 00:17:22;;;;;;;15.95;5.00;;;;;;;;;;4990293;28;25089;-73
2024/01/02 00:19:48;;;;;;;20.23;5.13;;;;;;;;;;4996670;28;25064;-73
2024/01/02 00:22:14;;;;;;;21.38;4.50;;;;;;;;;;4998998;28;25079;-74
2024/01/02 00:24:41;;;;;;;20.50;4.10;;;;;;;;;;4992332;28;25086;-73
2024/01/02 00:27:07;;;;;;;14.57;3.60;;;;;;;;;;4991653;28;25075;-73
2024/01/02 00:29:33;;;;;;;11.82;3.58;;;;;;;;;;5027701;28;25064;-74
2024/01/02 00:31:59;;;;;;;8.60;4.05;;;;;;;;;;4994535;28;25121;-73
2024/01/02 00:34:25;;;;;;;10.25;3.15;;;;;;;;;;4998356;28;25060;-74
2024/01/02 00:36:51;;;;;;;13.50;3.38;;;;;;;;;;4996046;28;25079;-73
2024/01/02 00:39:17;;;;;;;17.77;3.85;;;;;;;;;;5000175;28;25143;-74
2024/01/02 00:41:43;;;;;;;10.30;3.67;;;;;;;;;;4990973;28;25095;-73
2024/01/02 00:44:09;;;;;;;9.95;2.88;;;;;;;;;;4992287;28;25066;-74
2024/01/02 00:46:35;;;;;;;13.00;3.78;;;;;;;;;;4994879;28;25084;-73
2024/01/02 00:49:01;;;;;;;12.90;3.47;;;;;;;;;;4990064;28;25110;-73
2024/01/02 00:51:27;;;;;;;11.35;3.17;;;;;;;;;;4998335;28;25117;-75
2024/01/02 00:53:53;;;;;;;10.32;3.53;;;;;;;;;;4992157;28;25091;-74
2024/01/02 00:56:19;;;;;;;7.70;3.30;;;;;;;;;;4994231;28;25051;-74
2024/01/02 00:58:45;;;;;;;15.05;3.45;;;;;;;;;;5024074;28;25088;-74
2024/01/02 01:01:11;;;;;;;9.82;2.83;;;;;;;;;;4995734;28;25054;-73
2024/01/02 01:03:38;;;;;;;16.50;2.78;;;;;;;;;;4998017;28;25141;-74
2024/01/02 01:06:04;;;;;;;8.88;3.47;;;;;;;;;;4991421;28;25076;-74
2024/01/02 01:08:30;;;;;;;10.38;2.80;;;;;;;;;;4995122;28;25136;-75
2024/01/02 01:10:56;;;;;;;10.32;3.05;;;;;;;;;;4990006;28;25057;-74
2024/01/02 01:13:22;;;;;;;7.53;2.58;;;;;;;;;;5002476;28;25051;-73
2024/01/02 01:15:48;;;;;;;8.60;2.78;;;;;;;;;;5000992;28;25112;-74
2024/01/02 01:18:14;;;;;;;6.43;2.22;;;;;;;;;;5032663;28;25163;-74
2024/01/02 01:20:40;;;;;;;12.70;3.00;;;;;;;;;;4987232;28;25059;-74
2024/01/02 01:23:06;;;;;;;6.78;2.97;;;;;;;;;;4998177;28;25082;-74
2024/01/02 01:25:32;;;;;;;6.90;2.72;;;;;;;;;;4998259;28;25101;-74
2024/01/02 01:27:58;;;;;;;6.35;2.90;;;;;;;;;;4991842;28;25154;-76
2024/01/02 01:30:24;;;;;;;3.92;2.70;;;;;;;;;;4994237;28;25139;-75
2024/01/02 01:32:50;;;;;;;7.65;2.75;;;;;;;;;;4991864;28;25061;-75
2024/01/02 01:35:16;;;;;;;7.30;3.13;;;;;;;;;;5005442;28;25136;-75
2024/01/02 01:37:42;;;;;;;7.88;2.78;;;;;;;;;;4990884;28;25060;-74
2024/01/02 01:40:09;;;;;;;11.32;3.58;;;;;;;;;;4992772;28;25060;-76
2024/01/02 01:42:35;;;;;;;6.68;3.03;;;;;;;;;;4986384;28;25073;-75
2024/01/02 01:45:01;;;;;;;4.55;2.70;;;;;;;;;;4991697;28;25057;-74
2024/01/02 01:47:27;;;;;;;7.18;2.75;;;;;;;;;;4990843;28;25324;-75
2024/01/02 01:49:53;;;;;;;6.43;2.25;;;;;;;;;;4993659;28;25104;-75
2024/01/02 01:52:19;;;;;;;6.65;2.58;;;;;;;;;;5008205;28;25085;-75
2024/01/02 01:54:45;;;;;;;4.72;2.50;;;;;;;;;;4989739;28;25140;-76
2024/01/02 01:57:13;;;;;;;5.18;2.45;;;;;;;;;;4984453;28;25063;-74
2024/01/02 01:59:40;;;;;;;6.13;2.70;;;;;;;;;;4984590;28;24823;-74
2024/01/02 02:02:07;;;;;;;8.95;2.38;;;;;;;;;;4994896;28;25095;-72
2024/01/02 02:04:36;;;;;;;5.60;2.50;;;;;;;;;;4994704;28;25085;-74
2024/01/02 02:07:02;;;;;;;4.82;3.25;;;;;;;;;;4989826;28;25047;-75
2024/01/02 02:09:28;;;;;;;3.45;1.83;;;;;;;;;;4986016;28;25057;-75
2024/01/02 02:11:55;;;;;;;3.67;2.08;;;;;;;;;;4992436;28;25108;-74
2024/01/02 02:14:21;;;;;;;5.28;2.30;;;;;;;;;;4991296;28;25184;-74
2024/01/02 02:16:50;;;;;;;8.82;2.45;;;;;;;;;;4987970;28;25036;-74
2024/01/02 02:19:16;;;;;;;6.53;2.80;;;;;;;;;;4993111;28;25067;-75
2024/01/02 02:21:43;;;;;;;2.40;2.20;;;;;;;;;;4987971;28;25068;-72
2024/01/02 02:24:09;;;;;;;7.07;2.35;;;;;;;;;;4996205;28;25068;-73
2024/01/02 02:26:36;;;;;;;3.53;1.92;;;;;;;;;;4990128;28;25075;-75
2024/01/02 02:29:01;;;;;;;3.25;2.38;;;;;;;;;;4994264;28;25068;-73
2024/01/02 02:31:27;;;;;;;2.10;1.83;;;;;;;;;;4978566;28;25073;-73
2024/01/02 02:33:53;;;;;;;3.13;2.45;;;;;;;;;;4994389;28;25052;-76
2024/01/02 02:36:19;;;;;;;3.70;2.47;;;;;;;;;;4989666;28;25128;-73
2024/01/02 02:38:45;;;;;;;3.85;2.17;;;;;;;;;;5018190;28;25066;-75
2024/01/02 02:41:11;;;;;;;2.20;2.00;;;;;;;;;;4981228;28;25100;-72
2024/01/02 02:43:37;;;;;;;3.70;1.80;;;;;;;;;;4987003;28;25062;-72
2024/01/02 02:46:03;;;;;;;2.15;1.80;;;;;;;;;;5018107;28;25081;-72
2024/01/02 02:48:29;;;;;;;2.25;1.58;;;;;;;;;;4993772;28;25070;-74
2024/01/02 02:50:55;;;;;;;4.50;1.67;;;;;;;;;;4989419;28;25076;-73
2024/01/02 02:53:21;;;;;;;2.45;1.70;;;;;;;;;;4996495;28;25157;-73
2024/01/02 02:55:47;;;;;;;2.38;1.52;;;;;;;;;;4993858;28;25103;-73
2024/01/02 02:58:13;;;;;;;3.88;1.70;;;;;;;;;;4993643;28;25070;-73
2024/01/02 03:00:39;;;;;;;2.70;1.55;;;;;;;;;;4991951;28;25055;-72
2024/01/02 03:03:05;;;;;;;1.50;1.40;;;;;;;;;;4989264;28;25073;-75
2024/01/02 03:05:31;;;;;;;2.80;1.75;;;;;;;;;;4994860;28;25093;-73
2024/01/02 03:08:00;;;;;;;2.00;1.80;;;;;;;;;;4988076;28;25063;-73
2024/01/02 03:10:26;;;;;;;1.63;1.52;;;;;;;;;;4995500;28;25066;-73
2024/01/02 03:12:52;;;;;;;1.98;1.70;;;;;;;;;;4994393;28;25108;-74
2024/01/02 03:15:18;;;;;;;2.05;1.70;;;;;;;;;;4992367;28;25055;-74
2024/01/02 03:17:44;;;;;;;2.55;2.08;;;;;;;;;;5015039;28;25054;-73
2024/01/02 03:20:10;;;;;;;1.60;1.48;;;;;;;;;;4991649;28;25066;-72
2024/01/02 03:22:37;;;;;;;1.60;1.50;;;;;;;;;;4998993;28;25062;-72
2024/01/02 03:25:04;;;;;;;2.95;1.52;;;;;;;;;;5013671;28;25100;-73
2024/01/02 03:27:30;;;;;;;1.70;1.60;;;;;;;;;;4997480;28;25062;-73
2024/01/02 03:29:57;;;;;;;1.75;1.50;;;;;;;;;;4992446;28;25123;-74
2024/01/02 03:32:23;;;;;;;3.72;1.70;;;;;;;;;;4990845;28;25119;-74
2024/01/02 03:34:50;;;;;;;1.20;1.20;;;;;;;;;;4993191;28;25092;-73
2024/01/02 03:37:16;;;;;;;1.92;1.83;;;;;;;;;;4989704;28;25080;-73
2024/01/02 03:39:42;;;;;;;1.80;1.70;;;;;;;;;;4988796;28;25096;-73
2024/01/02 03:42:09;;;;;;;3.00;1.77;;;;;;;;;;4992356;28;25053;-73
2024/01/02 03:44:34;;;;;;;3.30;1.85;;;;;;;;;;4988701;28;25075;-72
2024/01/02 03:47:00;;;;;;;2.30;1.80;;;;;;;;;;4986097;28;25053;-74
2024/01/02 03:49:26;;;;;;;1.80;1.70;;;;;;;;;;4994080;28;25161;-73
2024/01/02 03:51:52;;;;;;;2.03;1.90;;;;;;;;;;4997235;28;25060;-74
2024/01/02 03:54:18;;;;;;;1.65;1.55;;;;;;;;;;4988868;28;25121;-74
2024/01/02 03:56:44;;;;;;;4.10;1.92;;;;;;;;;;4997443;28;25076;-74
2024/01/02 03:59:10;;;;;;;1.10;1.10;;;;;;;;;;4994195;28;25060;-74
2024/01/02 04:01:45;;;;;;;2.75;2.10;;;;;;;;;;5003079;28;25112;-73
2024/01/02 04:04:12;;;;;;;2.33;2.15;;;;;;;;;;4986740;28;25083;-74
2024/01/02 04:06:38;;;;;;;2.80;2.60;;;;;;;;;;4984976;28;25150;-75
2024/01/02 04:09:04;;;;;;;3.30;3.05;;;;;;;;;;4987999;28;25073;-72
2024/01/02 04:11:30;;;;;;;3.70;3.40;;;;;;;;;;4991430;28;25061;-74
2024/01/02 04:13:56;;;;;;;4.22;3.92;;;;;;;;;;4988489;28;25148;-74
2024/01/02 04:16:22;;;;;;;6.72;5.15;;;;;;;;;;4993087;28;25139;-72
2024/01/02 04:18:50;;;;;;;5.70;5.30;;;;;;;;;;4995811;28;25012;-72
2024/01/02 04:21:16;;;;;;;5.90;5.45;;;;;;;;;;4986711;28;25112;-74
2024/01/02 04:23:42;;;;;;;6.25;5.75;;;;;;;;;;4990499;28;25051;-75
2024/01/02 04:26:08;;;;;;;7.40;6.70;;;;;;;;;;4993194;28;25070;-73
2024/01/02 04:28:34;;;;;;;5.75;5.15;;;;;;;;;;5020814;28;25041;-73
2024/01/02 04:31:00;;;;;;;6.55;5.95;;;;;;;;;;4987922;28;25061;-75
2024/01/02 04:33:26;;;;;;;6.95;4.47;;;;;;;;;;5025321;28;25048;-74
2024/01/02 04:35:52;;;;;;;4.72;4.30;;;;;;;;;;4989456;28;25056;-74
2024/01/02 04:38:18;;;;;;;3.35;3.15;;;;;;;;;;4990922;28;25074;-72
2024/01/02 04:40:44;;;;;;;3.50;3.30;;;;;;;;;;4996435;28;25059;-73
2024/01/02 04:43:10;;;;;;;2.72;2.53;;;;;;;;;;4994095;28;25070;-73
2024/01/02 04:45:37;;;;;;;2.72;2.53;;;;;;;;;;5022868;28;25077;-73
2024/01/02 04:48:03;;;;;;;2.70;2.60;;;;;;;;;;5005965;28;25159;-73
2024/01/02 04:50:29;;;;;;;3.20;2.97;;;;;;;;;;5006205;28;25093;-75
2024/01/02 04:52:55;;;;;;;3.35;3.05;;;;;;;;;;4994718;28;25059;-74
2024/01/02 04:55:21;;;;;;;2.90;2.70;;;;;;;;;;4997545;28;25154;-74
2024/01/02 04:57:47;;;;;;;3.47;3.22;;;;;;;;;;4994069;28;25092;-74
2024/01/02 05:00:13;;;;;;;3.70;3.50;;;;;;;;;;4999393;28;25060;-75
2024/01/02 05:02:39;;;;;;;4.60;4.30;;;;;;;;;;4991868;28;25107;-73
2024/01/02 05:05:05;;;;;;;3.60;3.38;;;;;;;;;;4997782;28;25089;-74
2024/01/02 05:07:31;;;;;;;3.40;3.10;;;;;;;;;;4998478;28;25075;-73
2024/01/02 05:10:00;;;;;;;3.60;3.30;;;;;;;;;;4989094;28;25063;-72
2024/01/02 05:12:26;;;;;;;3.78;3.47;;;;;;;;;;4988156;28;25072;-74
2024/01/02 05:14:52;;;;;;;5.63;3.47;;;;;;;;;;5003629;28;25133;-75
2024/01/02 05:17:18;;;;;;;5.70;3.63;;;;;;;;;;4994477;28;25070;-74
2024/01/02 05:19:44;;;;;;;5.43;4.28;;;;;;;;;;4987109;28;25147;-73
2024/01/02 05:22:10;;;;;;;8.32;4.93;;;;;;;;;;4992686;28;25137;-74
2024/01/02 05:24:36;;;;;;;5.70;5.10;;;;;;;;;;4998774;28;25072;-73
2024/01/02 05:27:02;;;;;;;8.38;5.90;;;;;;;;;;5023882;28;25072;-74
2024/01/02 05:29:28;;;;;;;10.43;6.13;;;;;;;;;;4995352;28;25130;-75
2024/01/02 05:31:54;;;;;;;9.27;6.68;;;;;;;;;;5002320;28;25065;-73
2024/01/02 05:34:20;;;;;;;12.85;6.90;;;;;;;;;;4994429;28;25065;-73
2024/01/02 05:36:46;;;;;;;16.75;8.00;;;;;;;;;;5009743;28;25164;-72
2024/01/02 05:39:12;;;;;;;19.05;8.27;;;;;;;;;;5015926;28;25079;-73
2024/01/02 05:41:38;;;;;;;19.90;7.88;;;;;;;;;;4986131;28;25061;-72
2024/01/02 05:44:04;;;;;;;15.85;7.38;;;;;;;;;;5001174;28;25064;-72
2024/01/02 05:46:31;;;;;;;20.05;6.60;;;;;;;;;;5000161;28;25085;-74
2024/01/02 05:48:57;;;;;;;21.23;6.97;;;;;;;;;;5001661;28;25106;-74
2024/01/02 05:51:23;;;;;;;27.52;6.75;;;;;;;;;;4989965;28;25113;-74
2024/01/02 05:53:49;;;;;;;40.90;7.68;;;;;;;;;;4997128;28;25054;-73
2024/01/02 05:56:17;;;;;;;33.65;7.18;;;;;;;;;;4984946;28;25062;-72
2024/01/02 05:58:43;;;;;;;41.22;7.07;;;;;;;;;;4990858;28;25079;-74
2024/01/02 06:01:09;;;;;;;45.08;8.02;;;;;;;;;;4996410;28;25070;-73
2024/01/02 06:03:35;;;;;;;28.27;6.82;;;;;;;;;;4993140;28;25155;-71
2024/01/02 06:06:01;;;;;;;44.55;7.53;;;;;;;;;;5020013;28;25122;-71
2024/01/02 06:08:26;;;;;;;46.78;7.82;;;;;;;;;;4989786;28;25089;-72
2024/01/02 06:10:52;;;;;;;41.38;8.45;;;;;;;;;;4990737;28;25263;-73
2024/01/02 06:13:18;;;;;;;46.75;8.18;;;;;;;;;;4986818;28;25056;-73
2024/01/02 06:15:44;;;;;;;43.53;8.57;;;;;;;;;;4999020;28;25154;-74
2024/01/02 06:18:11;;;;;;;55.08;10.65;;;;;;;;;;5014528;28;25053;-72
2024/01/02 06:20:38;;;;;;;46.40;9.38;;;;;;;;;;4987623;28;25150;-72
2024/01/02 06:23:04;;;;;;;50.92;8.82;;;;;;;;;;5000215;28;25072;-70
2024/01/02 06:25:30;;;;;;;45.88;9.55;;;;;;;;;;4993284;28;25132;-73
2024/01/02 06:27:56;;;;;;;45.45;8.65;;;;;;;;;;4992771;28;25070;-71
2024/01/02 06:30:22;;;;;;;53.65;10.80;;;;;;;;;;4985907;28;25105;-72
2024/01/02 06:32:48;;;;;;;52.47;9.60;;;;;;;;;;4990176;28;25094;-74
2024/01/02 06:35:15;;;;;;;49.03;10.27;;;;;;;;;;4991447;28;25042;-72
2024/01/02 06:37:41;;;;;;;49.00;9.75;;;;;;;;;;4993129;28;25178;-71
2024/01/02 06:40:08;;;;;;;56.15;11.20;;;;;;;;;;5025228;28;25097;-72
2024/01/02 06:42:35;;;;;;;46.45;9.65;;;;;;;;;;4994022;28;25062;-71
2024/01/02 06:45:00;;;;;;;60.28;12.55;;;;;;;;;;4992180;28;25055;-72
2024/01/02 06:47:27;;;;;;;58.20;10.20;;;;;;;;;;4998455;28;25056;-72
2024/01/02 06:49:53;;;;;;;53.30;11.07;;;;;;;;;;4994932;28;25060;-73
2024/01/02 06:52:19;;;;;;;59.33;10.30;;;;;;;;;;4990670;28;25073;-73
2024/01/02 06:54:45;;;;;;;62.00;11.85;;;;;;;;;;4991276;28;25118;-72
2024/01/02 06:57:11;;;;;;;69.38;12.65;;;;;;;;;;4986322;28;25073;-71
2024/01/02 06:59:37;;;;;;;57.75;12.70;;;;;;;;;;4995066;28;25045;-71
2024/01/02 07:02:03;;;;;;;58.53;12.38;;;;;;;;;;4992335;28;25062;-73
2024/01/02 07:04:29;;;;;;;60.92;11.55;;;;;;;;;;4992930;28;25057;-71
2024/01/02 07:06:56;;;;;;;56.63;11.55;;;;;;;;;;4998324;28;25176;-75
2024/01/02 07:09:21;;;;;;;55.63;11.43;;;;;;;;;;4995197;28;25055;-73
2024/01/02 07:11:48;;;;;;;60.35;12.93;;;;;;;;;;5001813;28;25058;-72
2024/01/02 07:14:14;;;;;;;73.50;14.23;;;;;;;;;;4995463;28;25086;-73
2024/01/02 07:16:40;;;;;;;69.43;13.68;;;;;;;;;;4997231;28;25161;-73
2024/01/02 07:19:06;;;;;;;62.63;12.57;;;;;;;;;;4993073;28;25060;-72
2024/01/02 07:21:32;;;;;;;71.32;13.20;;;;;;;;;;4987848;28;25168;-71
2024/01/02 07:23:58;;;;;;;56.88;13.23;;;;;;;;;;4988305;28;25069;-72
2024/01/02 07:26:24;;;;;;;71.10;13.30;;;;;;;;;;4987688;28;25131;-72
2024/01/02 07:28:50;;;;;;;66.47;14.52;;;;;;;;;;4983387;28;25108;-71
2024/01/02 07:31:16;;;;;;;60.65;12.70;;;;;;;;;;5001484;28;25143;-72
2024/01/02 07:33:42;;;;;;;60.22;14.82;;;;;;;;;;4987264;28;25063;-72
2024/01/02 07:36:08;;;;;;;54.50;11.98;;;;;;;;;;4992751;28;25059;-72
2024/01/02 07:38:34;;;;;;;53.05;12.68;;;;;;;;;;4991280;28;25049;-73
2024/01/02 07:41:00;;;;;;;55.40;12.95;;;;;;;;;;4994441;28;25081;-72
2024/01/02 07:43:28;;;;;;;56.78;12.10;;;;;;;;;;4983605;28;25108;-73
2024/01/02 07:45:55;;;;;;;63.22;13.52;;;;;;;;;;4990981;28;25170;-72
2024/01/02 07:48:21;;;;;;;65.20;13.65;;;;;;;;;;5000265;28;25062;-72
2024/01/02 07:50:47;;;;;;;66.70;12.00;;;;;;;;;;4993530;28;25143;-72
2024/01/02 07:53:19;;;;;;;54.08;12.85;;;;;;;;;;4993437;28;25115;-73
2024/01/02 07:55:45;;;;;;;54.80;12.73;;;;;;;;;;4999822;28;25147;-74
2024/01/02 07:58:11;;;;;;;55.00;12.23;;;;;;;;;;5008683;28;25069;-73
2024/01/02 08:00:37;;;;;;;63.35;12.75;;;;;;;;;;4986704;28;25092;-71
2024/01/02 08:03:03;;;;;;;73.70;13.60;;;;;;;;;;4992441;28;25185;-70
2024/01/02 08:05:29;;;;;;;59.03;12.32;;;;;;;;;;4992203;28;25125;-71
2024/01/02 08:07:55;;;;;;;55.28;13.23;;;;;;;;;;4998666;28;25073;-72
2024/01/02 08:10:21;;;;;;;67.72;13.52;;;;;;;;;;4992938;28;25071;-71
2024/01/02 08:12:47;;;;;;;63.70;12.48;;;;;;;;;;4997263;28;25073;-70
2024/01/02 08:15:14;;;;;;;62.22;12.20;;;;;;;;;;5001272;28;25054;-73
2024/01/02 08:17:40;;;;;;;56.80;12.85;;;;;;;;;;4989954;28;25164;-70
2024/01/02 08:20:06;;;;;;;63.67;13.35;;;;;;;;;;5018664;28;25094;-70
2024/01/02 08:22:32;;;;;;;59.97;13.48;;;;;;;;;;4991654;28;25078;-71
2024/01/02 08:24:58;;;;;;;67.45;12.90;;;;;;;;;;4996195;28;25071;-71
2024/01/02 08:27:25;;;;;;;67.30;12.90;;;;;;;;;;4988414;28;25112;-72
2024/01/02 08:29:51;;;;;;;61.53;12.73;;;;;;;;;;4988024;28;25088;-70
2024/01/02 08:32:18;;;;;;;71.15;12.73;;;;;;;;;;4984263;28;25090;-70
2024/01/02 08:34:44;;;;;;;64.40;12.18;;;;;;;;;;5016415;28;25069;-71
2024/01/02 08:37:10;;;;;;;60.85;11.68;;;;;;;;;;5001353;28;25075;-71
2024/01/02 08:39:36;;;;;;;58.78;12.07;;;;;;;;;;4989421;28;25130;-70
2024/01/02 08:42:02;;;;;;;63.72;12.20;;;;;;;;;;4994397;28;25054;-71
2024/01/02 08:44:28;;;;;;;64.75;12.30;;;;;;;;;;4983449;28;25059;-70
2024/01/02 08:46:54;;;;;;;59.63;12.00;;;;;;;;;;4990266;28;25067;-70
2024/01/02 08:49:20;;;;;;;72.75;12.80;;;;;;;;;;4988778;28;25056;-71
2024/01/02 08:51:46;;;;;;;63.53;11.10;;;;;;;;;;4994772;28;25079;-70
2024/01/02 08:54:12;;;;;;;49.42;11.00;;;;;;;;;;4994631;28;25053;-70
2024/01/02 08:56:38;;;;;;;44.03;9.55;;;;;;;;;;4997244;28;25136;-70
2024/01/02 08:59:04;;;;;;;55.30;11.38;;;;;;;;;;4986034;28;25059;-71
2024/01/02 09:01:30;;;;;;;52.53;10.75;;;;;;;;;;5019108;28;25094;-70
2024/01/02 09:03:56;;;;;;;39.35;9.02;;;;;;;;;;4990256;28;25073;-71
2024/01/02 09:06:22;;;;;;;53.90;10.93;;;;;;;;;;4997222;28;25125;-68
2024/01/02 09:08:49;;;;;;;51.75;9.65;;;;;;;;;;4999411;28;25064;-68
2024/01/02 09:11:15;;;;;;;51.85;10.63;;;;;;;;;;4996755;28;25151;-69
2024/01/02 09:13:41;;;;;;;42.33;10.45;;;;;;;;;;4988149;28;25165;-71
2024/01/02 09:16:10;;;;;;;49.58;10.70;;;;;;;;;;4995748;28;25071;-70
2024/01/02 09:18:36;;;;;;;44.25;8.70;;;;;;;;;;5024356;28;25111;-70
2024/01/02 09:21:03;;;;;;;42.72;11.13;;;;;;;;;;4995995;28;25086;-70
2024/01/02 09:23:29;;;;;;;40.95;10.07;;;;;;;;;;4993686;28;25084;-70
2024/01/02 09:25:59;;;;;;;41.35;10.05;;;;;;;;;;4987741;28;25146;-70
2024/01/02 09:28:25;;;;;;;32.63;7.07;;;;;;;;;;4989906;28;25065;-70
2024/01/02 09:30:51;;;;;;;23.20;6.68;;;;;;;;;;4997606;28;25117;-70
2024/01/02 09:33:17;;;;;;;25.33;6.28;;;;;;;;;;4993084;28;25083;-70
2024/01/02 09:35:43;;;;;;;29.63;7.00;;;;;;;;;;4995171;28;25058;-70
2024/01/02 09:38:10;;;;;;;24.02;5.63;;;;;;;;;;5000702;28;25060;-69
2024/01/02 09:40:54;;;;;;;21.10;6.03;;;;;;;;;;4987753;28;25085;-69
2024/01/02 09:43:33;;;;;;;22.23;5.80;;;;;;;;;;5026610;28;25130;-71
2024/01/02 09:46:12;;;;;;;21.45;5.65;;;;;;;;;;4993183;28;25140;-68
2024/01/02 09:48:38;;;;;;;19.13;5.25;;;;;;;;;;4987819;28;25071;-69
2024/01/02 09:51:12;;;;;;;15.32;5.22;;;;;;;;;;4985543;28;25074;-69
2024/01/02 09:53:47;;;;;;;15.80;5.07;;;;;;;;;;4992283;28;25050;-73
2024/01/02 09:56:17;;;;;;;14.50;4.70;;;;;;;;;;4991220;28;25080;-69
2024/01/02 09:58:52;;;;;;;12.13;4.07;;;;;;;;;;4994290;28;25075;-69
2024/01/02 10:01:18;;;;;;;12.82;3.65;;;;;;;;;;4985889;28;25070;-68
2024/01/02 10:03:56;;;;;;;14.18;4.00;;;;;;;;;;4986951;28;25139;-70
2024/01/02 10:06:32;;;;;;;15.60;3.83;;;;;;;;;;4982450;28;25081;-70
2024/01/02 10:09:09;;;;;;;10.70;3.13;;;;;;;;;;5024855;28;25060;-70
2024/01/02 10:11:52;;;;;;;7.90;2.75;;;;;;;;;;4987887;28;25053;-70
2024/01/02 10:14:31;;;;;;;4.75;3.00;;;;;;;;;;4981489;28;25060;-69
2024/01/02 10:17:20;;;;;;;5.50;3.65;;;;;;;;;;4984937;28;25069;-70
2024/01/02 10:19:49;;;;;;;9.88;3.78;;;;;;;;;;4986925;28;25040;-70
2024/01/02 10:22:27;;;;;;;9.45;5.32;;;;;;;;;;4994552;28;25085;-70
2024/01/02 10:24:56;;;;;;;10.40;6.60;;;;;;;;;;4989373;28;25156;-70
2024/01/02 10:27:27;;;;;;;11.20;7.18;;;;;;;;;;4993514;28;25060;-71
2024/01/02 10:30:03;;;;;;;8.40;6.78;;;;;;;;;;4993518;28;25074;-69
2024/01/02 10:32:32;;;;;;;9.13;7.20;;;;;;;;;;4990945;28;25097;-69
2024/01/02 10:35:11;;;;;;;10.50;7.57;;;;;;;;;;5003173;28;25064;-69
2024/01/02 10:37:42;;;;;;;9.80;7.50;;;;;;;;;;4988229;28;25084;-70
2024/01/02 10:40:12;;;;;;;9.65;8.65;;;;;;;;;;4989433;28;25069;-70
2024/01/02 10:42:41;;;;;;;7.88;7.20;;;;;;;;;;4991154;28;25063;-69
2024/01/02 10:45:10;;;;;;;8.50;7.20;;;;;;;;;;4989163;28;25067;-71
2024/01/02 10:47:36;;;;;;;7.53;6.72;;;;;;;;;;5023998;28;25102;-69
2024/01/02 10:50:04;;;;;;;5.90;5.30;;;;;;;;;;4990951;28;25091;-70
2024/01/02 10:52:41;;;;;;;6.05;5.55;;;;;;;;;;4984302;28;24762;-70
2024/01/02 10:55:07;;;;;;;5.22;4.82;;;;;;;;;;5024538;28;25057;-70
2024/01/02 10:57:46;;;;;;;4.85;4.35;;;;;;;;;;4987672;28;25119;-68
2024/01/02 11:00:22;;;;;;;5.40;5.00;;;;;;;;;;4990334;28;25059;-70
2024/01/02 11:02:51;;;;;;;6.75;4.95;;;;;;;;;;4979394;28;25106;-71
2024/01/02 11:05:23;;;;;;;4.85;4.50;;;;;;;;;;5021077;28;25085;-69
2024/01/02 11:07:50;;;;;;;4.80;4.50;;;;;;;;;;4986982;28;25073;-70
2024/01/02 11:10:19;;;;;;;3.88;3.63;;;;;;;;;;4983605;28;25128;-70
2024/01/02 11:13:03;;;;;;;3.58;3.38;;;;;;;;;;4979034;28;25070;-70
2024/01/02 11:15:31;;;;;;;3.67;3.47;;;;;;;;;;4984876;28;25148;-69
2024/01/02 11:17:58;;;;;;;2.70;2.60;;;;;;;;;;4987589;28;25163;-71
2024/01/02 11:20:28;;;;;;;3.03;2.83;;;;;;;;;;4986837;28;25081;-71
2024/01/02 11:23:01;;;;;;;2.80;2.70;;;;;;;;;;4983599;28;25076;-71
2024/01/02 11:25:29;;;;;;;3.10;3.00;;;;;;;;;;4988549;28;25072;-69
2024/01/02 11:27:55;;;;;;;4.10;3.90;;;;;;;;;;4985597;28;25094;-70
2024/01/02 11:30:22;;;;;;;5.00;4.55;;;;;;;;;;4984045;28;25057;-71
2024/01/02 11:32:56;;;;;;;6.72;6.10;;;;;;;;;;4986998;28;25068;-71
2024/01/02 11:35:24;;;;;;;6.18;5.68;;;;;;;;;;4988937;28;25068;-70
2024/01/02 11:38:10;;;;;;;6.45;5.95;;;;;;;;;;4983815;28;25055;-71
2024/01/02 11:40:44;;;;;;;6.68;6.18;;;;;;;;;;4984698;28;25080;-72
2024/01/02 11:43:20;;;;;;;7.90;7.25;;;;;;;;;;4985020;28;25064;-70
2024/01/02 11:45:51;;;;;;;7.18;6.68;;;;;;;;;;4985581;28;25051;-71
2024/01/02 11:48:36;;;;;;;9.23;8.13;;;;;;;;;;4983729;28;25064;-71
2024/01/02 11:51:05;;;;;;;9.57;8.18;;;;;;;;;;4987293;28;25016;-70
2024/01/02 11:53:46;;;;;;;10.25;9.43;;;;;;;;;;4988433;28;25069;-71
2024/01/02 11:56:13;;;;;;;7.47;6.93;;;;;;;;;;4985573;28;25076;-71
2024/01/02 11:58:45;;;;;;;9.23;8.43;;;;;;;;;;4985118;28;25104;-71
2024/01/02 12:01:30;;;;;;;7.65;7.10;;;;;;;;;;4984980;28;25071;-72
2024/01/02 12:03:56;;;;;;;7.68;6.95;;;;;;;;;;4981935;28;25068;-71
2024/01/02 12:06:27;;;;;;;6.38;5.90;;;;;;;;;;4990493;28;25069;-71
2024/01/02 12:08:57;;;;;;;4.97;4.68;;;;;;;;;;4984221;28;25064;-71
2024/01/02 12:11:25;;;;;;;4.82;4.47;;;;;;;;;;4991040;28;25065;-73
2024/01/02 12:14:10;;;;;;;5.03;3.38;;;;;;;;;;4986264;28;25067;-72
2024/01/02 12:16:37;;;;;;;3.20;3.00;;;;;;;;;;4991941;28;25045;-70
2024/01/02 12:19:06;;;;;;;2.75;2.65;;;;;;;;;;4985674;28;25072;-71
2024/01/02 12:21:33;;;;;;;2.22;2.13;;;;;;;;;;4992176;28;25077;-71
2024/01/02 12:24:01;;;;;;;1.70;1.60;;;;;;;;;;4988374;28;25157;-72
2024/01/02 12:26:31;;;;;;;2.25;2.15;;;;;;;;;;4992747;28;25065;-72
2024/01/02 12:28:59;;;;;;;3.38;1.83;;;;;;;;;;5018892;28;25070;-71
2024/01/02 12:31:25;;;;;;;4.45;2.15;;;;;;;;;;4984734;28;25098;-71
2024/01/02 12:34:06;;;;;;;1.35;1.35;;;;;;;;;;4985896;28;25085;-71
2024/01/02 12:36:48;;;;;;;1.98;1.88;;;;;;;;;;4991269;28;25070;-71
2024/01/02 12:39:17;;;;;;;2.00;1.90;;;;;;;;;;4990908;28;25051;-71
2024/01/02 12:41:51;;;;;;;1.88;1.45;;;;;;;;;;4991398;28;25073;-72
2024/01/02 12:44:18;;;;;;;3.00;1.95;;;;;;;;;;4990494;28;25070;-71
2024/01/02 12:46:44;;;;;;;2.05;1.95;;;;;;;;;;4991781;28;25046;-73
2024/01/02 12:49:11;;;;;;;1.85;1.52;;;;;;;;;;4987903;28;25061;-73
2024/01/02 12:51:38;;;;;;;5.43;2.10;;;;;;;;;;4983803;28;25075;-72
2024/01/02 12:54:05;;;;;;;2.22;2.03;;;;;;;;;;4985923;28;25055;-72
2024/01/02 12:56:32;;;;;;;2.28;2.08;;;;;;;;;;4989675;28;25051;-72
2024/01/02 12:59:05;;;;;;;2.40;2.20;;;;;;;;;;5021494;28;25131;-73
2024/01/02 13:01:31;;;;;;;2.83;1.95;;;;;;;;;;4985186;28;25161;-71
2024/01/02 13:03:58;;;;;;;2.58;2.38;;;;;;;;;;4986764;28;25071;-72
2024/01/02 13:06:24;;;;;;;3.83;3.10;;;;;;;;;;4986676;28;25102;-71
2024/01/02 13:08:50;;;;;;;3.00;2.80;;;;;;;;;;4987695;28;25082;-72
2024/01/02 13:11:17;;;;;;;3.88;2.63;;;;;;;;;;5016746;28;25067;-71
2024/01/02 13:13:43;;;;;;;3.90;3.47;;;;;;;;;;4996536;28;25074;-72
2024/01/02 13:16:10;;;;;;;5.72;2.92;;;;;;;;;;5000123;28;25097;-72
2024/01/02 13:18:36;;;;;;;3.60;3.30;;;;;;;;;;4991763;28;25086;-72
2024/01/02 13:21:02;;;;;;;3.53;3.30;;;;;;;;;;4981885;28;25083;-73
2024/01/02 13:23:28;;;;;;;4.72;3.65;;;;;;;;;;4983990;28;25069;-73
2024/01/02 13:25:54;;;;;;;3.60;3.20;;;;;;;;;;4986362;28;25051;-71
2024/01/02 13:28:21;;;;;;;3.70;3.50;;;;;;;;;;4981389;28;25134;-70
2024/01/02 13:30:47;;;;;;;4.38;3.97;;;;;;;;;;4993544;28;25076;-71
2024/01/02 13:33:22;;;;;;;3.83;3.63;;;;;;;;;;4991792;28;25070;-72
2024/01/02 13:36:04;;;;;;;4.45;4.15;;;;;;;;;;4984327;28;25066;-71
2024/01/02 13:38:31;;;;;;;5.45;5.05;;;;;;;;;;4991221;28;25062;-73
2024/01/02 13:41:03;;;;;;;6.18;5.50;;;;;;;;;;4998063;28;25072;-71
2024/01/02 13:43:30;;;;;;;6.28;5.78;;;;;;;;;;4999636;28;25141;-71
2024/01/02 13:46:09;;;;;;;5.88;5.47;;;;;;;;;;4989587;28;25072;-72
2024/01/02 13:48:35;;;;;;;6.15;5.55;;;;;;;;;;5000768;28;25063;-72
2024/01/02 13:51:03;;;;;;;5.75;5.25;;;;;;;;;;5033173;28;25065;-73
2024/01/02 13:53:29;;;;;;;6.70;6.10;;;;;;;;;;4997066;28;25126;-74
2024/01/02 13:55:55;;;;;;;7.57;6.13;;;;;;;;;;4988346;28;25061;-71
2024/01/02 13:58:22;;;;;;;7.38;6.75;;;;;;;;;;4990899;28;25055;-70
2024/01/02 14:00:49;;;;;;;7.80;7.10;;;;;;;;;;4987155;28;25117;-71
2024/01/02 14:03:17;;;;;;;6.07;5.65;;;;;;;;;;4989942;28;25059;-70
2024/01/02 14:05:51;;;;;;;6.10;5.60;;;;;;;;;;4979731;28;25072;-72
2024/01/02 14:08:19;;;;;;;5.85;5.45;;;;;;;;;;5017846;28;25058;-72
2024/01/02 14:10:46;;;;;;;5.93;5.47;;;;;;;;;;4984579;28;25082;-73
2024/01/02 14:13:28;;;;;;;4.63;4.28;;;;;;;;;;4984920;28;25070;-72
2024/01/02 14:15:54;;;;;;;;;;;;;;;;;;4985306;28;25071;-72
2024/01/02 14:18:23;;;;;;;4.00;3.58;;;;;;;;;;4988824;28;25125;-72
2024/01/02 14:20:54;;;;;;;3.90;3.60;;;;;;;;;;4983506;28;25116;-71
2024/01/02 14:23:20;;;;;;;5.47;4.97;;;;;;;;;;4984816;28;25134;-71
2024/01/02 14:25:55;;;;;;;3.78;3.38;;;;;;;;;;4988626;28;25045;-71
2024/01/02 14:28:25;;;;;;;3.60;3.40;;;;;;;;;;4982723;28;25150;-72
2024/01/02 14:31:22;;;;;;;3.45;3.25;;;;;;;;;;4985055;28;25107;-72
2024/01/02 14:34:11;;;;;;;3.30;3.10;;;;;;;;;;5022439;28;25115;-72
2024/01/02 14:36:46;;;;;;;3.45;3.25;;;;;;;;;;5005144;28;25118;-72
2024/01/02 14:39:15;;;;;;;3.80;3.60;;;;;;;;;;4988976;28;25106;-72